Time;durP1;ratioP1;P1;durP2;ratioP2;P2;SDS_P1;SDS_P2;PMS_P1;PMS_P2;Temp;Humidity;BMP_temperature;BMP_pressure;BME280_temperature;BME280_humidity;BME280_pressure;Samples;Min_cycle;Max_cycle;Signal;HPM_P1;HPM_P2
2022/09/19 00:00:38;;;;;;;0.80;0.80;;;23.60;40.60;;;;;;6175447;23;21014;-60
2022/09/19 00:03:04;;;;;;;1.10;0.90;;;23.60;40.60;;;;;;6177789;23;20890;-58
2022/09/19 00:05:29;;;;;;;1.57;0.93;;;23.60;40.70;;;;;;6175003;23;20198;-59
2022/09/19 00:07:55;;;;;;;0.93;0.80;;;23.60;40.70;;;;;;6175483;23;20277;-58
2022/09/19 00:10:21;;;;;;;0.90;0.80;;;23.60;40.70;;;;;;6176140;23;20277;-57
2022/09/19 00:12:47;;;;;;;1.10;0.90;;;23.60;40.60;;;;;;6171047;23;20529;-58
2022/09/19 00:15:13;;;;;;;0.83;0.80;;;23.60;40.60;;;;;;6175705;23;20413;-58
2022/09/19 00:17:38;;;;;;;2.03;0.73;;;23.60;40.60;;;;;;6202148;23;21280;-58
2022/09/19 00:20:04;;;;;;;1.37;0.80;;;23.60;40.60;;;;;;6180673;23;20529;-58
2022/09/19 00:22:30;;;;;;;0.90;0.80;;;23.60;40.70;;;;;;6199419;23;20607;-61
2022/09/19 00:24:56;;;;;;;0.90;0.90;;;23.60;40.60;;;;;;6204085;23;20478;-58
2022/09/19 00:27:25;;;;;;;1.37;0.70;;;23.60;40.60;;;;;;6176137;22;20197;-62
2022/09/19 00:29:52;;;;;;;0.70;0.70;;;23.60;40.60;;;;;;6175669;23;20203;-58
2022/09/19 00:32:22;;;;;;;0.83;0.70;;;23.60;40.60;;;;;;6174990;23;20421;-59
2022/09/19 00:34:49;;;;;;;0.80;0.80;;;23.60;40.60;;;;;;6175243;23;20416;-58
2022/09/19 00:37:17;;;;;;;0.90;0.80;;;23.60;40.70;;;;;;6177478;23;20416;-58
2022/09/19 00:39:43;;;;;;;0.90;0.80;;;23.60;40.60;;;;;;6176065;23;20444;-58
2022/09/19 00:42:18;;;;;;;1.10;1.00;;;23.60;40.60;;;;;;6176065;23;20412;-58
2022/09/19 00:44:45;;;;;;;0.90;0.80;;;23.60;40.60;;;;;;6175329;23;20487;-59
2022/09/19 00:47:16;;;;;;;1.43;0.80;;;23.60;40.60;;;;;;6174407;23;20416;-60
2022/09/19 00:49:44;;;;;;;0.70;0.70;;;23.60;40.60;;;;;;6175682;23;20425;-59
2022/09/19 00:52:18;;;;;;;0.80;0.80;;;23.50;40.60;;;;;;6174867;23;20416;-58
2022/09/19 00:54:46;;;;;;;0.87;0.70;;;23.60;40.60;;;;;;6176296;23;20409;-58
2022/09/19 00:57:15;;;;;;;0.80;0.77;;;23.60;40.60;;;;;;6178292;23;20519;-59
2022/09/19 00:59:48;;;;;;;0.90;0.80;;;23.60;40.60;;;;;;6175526;23;20423;-58
2022/09/19 01:02:18;;;;;;;1.00;0.90;;;23.60;40.60;;;;;;6175159;23;20413;-58
2022/09/19 01:04:44;;;;;;;0.70;0.70;;;23.60;40.60;;;;;;6174902;23;20908;-61
2022/09/19 01:07:26;;;;;;;1.00;0.80;;;23.60;40.60;;;;;;6177565;23;20422;-60
2022/09/19 01:10:03;;;;;;;0.70;0.70;;;23.60;40.60;;;;;;6175221;23;20815;-58
2022/09/19 01:12:50;;;;;;;0.70;0.60;;;23.50;40.60;;;;;;6176594;23;20487;-59
2022/09/19 01:15:51;;;;;;;0.90;0.70;;;23.60;40.60;;;;;;6176313;23;20424;-64
2022/09/19 01:18:19;;;;;;;0.80;0.80;;;23.60;40.60;;;;;;6180663;23;20416;-58
2022/09/19 01:24:10;;;;;;;1.03;0.90;;;23.50;40.60;;;;;;6177863;23;20431;-58
2022/09/19 01:27:09;;;;;;;0.80;0.80;;;23.50;40.60;;;;;;6190055;23;20480;-60
2022/09/19 01:30:02;;;;;;;0.80;0.70;;;23.50;40.60;;;;;;6176843;23;20416;-61
2022/09/19 01:32:34;;;;;;;0.80;0.70;;;23.50;40.60;;;;;;6178049;23;20420;-58
2022/09/19 01:35:05;;;;;;;0.63;0.63;;;23.50;40.60;;;;;;6183873;23;20424;-58
2022/09/19 01:37:37;;;;;;;0.80;0.60;;;23.50;40.60;;;;;;6207291;23;20734;-58
2022/09/19 01:40:05;;;;;;;0.80;0.77;;;23.50;41.30;;;;;;6201062;23;21038;-58
2022/09/19 01:42:31;;;;;;;1.00;0.90;;;23.50;40.60;;;;;;6190080;23;20479;-58
2022/09/19 01:44:57;;;;;;;0.80;0.70;;;23.50;40.50;;;;;;6207827;23;20412;-59
2022/09/19 01:47:49;;;;;;;0.80;0.70;;;23.50;40.50;;;;;;6206622;23;20186;-59
2022/09/19 01:50:45;;;;;;;0.80;0.70;;;23.50;40.50;;;;;;6206184;23;20221;-58
2022/09/19 01:53:29;;;;;;;0.90;0.90;;;23.50;40.50;;;;;;6205544;23;20450;-58
2022/09/19 01:56:09;;;;;;;1.10;0.90;;;23.50;40.60;;;;;;6205959;23;21137;-60
2022/09/19 01:58:51;;;;;;;0.77;0.73;;;23.50;40.60;;;;;;6176987;23;21133;-59
2022/09/19 02:01:34;;;;;;;0.80;0.80;;;23.50;40.60;;;;;;6198949;23;20883;-59
2022/09/19 02:04:14;;;;;;;0.87;0.70;;;23.50;40.60;;;;;;6199636;23;20433;-58
2022/09/19 02:06:47;;;;;;;1.10;1.00;;;23.50;40.50;;;;;;6175101;23;20412;-60
2022/09/19 02:09:29;;;;;;;1.10;0.80;;;23.50;40.60;;;;;;6193988;23;20426;-58
2022/09/19 02:11:58;;;;;;;1.00;0.70;;;23.50;40.50;;;;;;6195197;23;20421;-60
2022/09/19 02:14:27;;;;;;;1.37;1.00;;;23.50;40.50;;;;;;6190707;23;20474;-60
2022/09/19 02:17:06;;;;;;;0.90;0.80;;;23.50;40.60;;;;;;6204657;23;20436;-64
2022/09/19 02:19:53;;;;;;;0.80;0.70;;;23.50;40.60;;;;;;6180001;23;20416;-60
2022/09/19 02:22:28;;;;;;;1.10;1.00;;;23.50;40.50;;;;;;6174244;23;20416;-58
2022/09/19 02:24:58;;;;;;;0.90;0.70;;;23.50;40.50;;;;;;6175108;23;20883;-58
2022/09/19 02:27:29;;;;;;;1.10;0.90;;;23.50;40.50;;;;;;6176647;23;20782;-58
2022/09/19 02:30:00;;;;;;;1.00;0.80;;;23.50;40.50;;;;;;6177479;23;20436;-58
2022/09/19 02:32:27;;;;;;;1.07;0.73;;;23.50;40.50;;;;;;6175850;23;20419;-58
2022/09/19 02:34:55;;;;;;;1.00;0.80;;;23.50;40.50;;;;;;6176617;23;20492;-58
2022/09/19 02:37:33;;;;;;;0.80;0.60;;;23.50;40.50;;;;;;6176342;23;20420;-59
2022/09/19 02:40:02;;;;;;;0.90;0.70;;;23.50;40.50;;;;;;6175674;23;20463;-59
2022/09/19 02:42:41;;;;;;;1.00;0.83;;;23.50;40.60;;;;;;6177406;23;20493;-58
2022/09/19 02:45:33;;;;;;;1.30;1.13;;;23.50;40.50;;;;;;6204957;23;20444;-59
2022/09/19 02:48:03;;;;;;;0.97;0.87;;;23.50;40.50;;;;;;6199630;23;20415;-58
2022/09/19 02:50:44;;;;;;;1.00;0.80;;;23.50;40.50;;;;;;6191639;23;20425;-58
2022/09/19 02:53:17;;;;;;;1.20;0.80;;;23.50;40.50;;;;;;6204832;23;20882;-59
2022/09/19 02:55:50;;;;;;;0.70;0.70;;;23.50;40.50;;;;;;6206990;23;20412;-65
2022/09/19 02:58:18;;;;;;;0.90;0.80;;;23.50;40.50;;;;;;6206120;23;20443;-59
2022/09/19 03:00:51;;;;;;;1.20;0.73;;;23.50;40.50;;;;;;6205480;23;20414;-61
2022/09/19 03:06:09;;;;;;;0.90;0.73;;;23.50;40.50;;;;;;6181833;22;21340;-59
2022/09/19 03:08:36;;;;;;;1.00;0.80;;;23.50;40.50;;;;;;6172549;23;20413;-62
2022/09/19 03:11:07;;;;;;;0.93;0.73;;;23.50;40.50;;;;;;6171847;23;20515;-63
2022/09/19 03:13:36;;;;;;;0.70;0.70;;;23.50;40.50;;;;;;6172997;23;20856;-59
2022/09/19 03:16:07;;;;;;;1.10;0.80;;;23.50;40.50;;;;;;6167576;23;20515;-58
2022/09/19 03:18:35;;;;;;;0.80;0.77;;;23.50;40.50;;;;;;6186877;23;20474;-58
2022/09/19 03:21:05;;;;;;;0.90;0.90;;;23.50;40.50;;;;;;6196825;23;20415;-58
2022/09/19 03:23:49;;;;;;;0.90;0.80;;;23.50;40.50;;;;;;6197500;23;20727;-60
2022/09/19 03:26:21;;;;;;;1.17;0.80;;;23.50;40.50;;;;;;6199098;23;20410;-59
2022/09/19 03:28:47;;;;;;;1.27;1.00;;;23.50;40.40;;;;;;6205905;23;20431;-58
2022/09/19 03:31:14;;;;;;;0.90;0.90;;;23.50;40.50;;;;;;6177510;23;20915;-65
2022/09/19 03:33:39;;;;;;;0.70;0.70;;;23.50;40.40;;;;;;6202867;23;20198;-58
2022/09/19 03:36:08;;;;;;;1.13;0.90;;;23.50;40.40;;;;;;6206824;23;20416;-60
2022/09/19 03:38:44;;;;;;;0.80;0.80;;;23.50;40.40;;;;;;6205530;23;20194;-58
2022/09/19 03:41:17;;;;;;;0.80;0.70;;;23.50;40.40;;;;;;6204437;23;20411;-65
2022/09/19 03:43:43;;;;;;;0.93;0.83;;;23.50;41.20;;;;;;6206813;23;20420;-60
2022/09/19 03:46:13;;;;;;;0.90;0.77;;;23.50;40.40;;;;;;6203402;23;20898;-58
2022/09/19 03:48:40;;;;;;;0.80;0.70;;;23.50;40.40;;;;;;6206548;23;20411;-59
2022/09/19 03:51:06;;;;;;;1.00;0.70;;;23.50;40.40;;;;;;6202592;23;20424;-59
2022/09/19 03:53:32;;;;;;;1.57;0.90;;;23.50;40.30;;;;;;6204215;23;20972;-61
2022/09/19 03:55:58;;;;;;;1.20;0.73;;;23.50;40.40;;;;;;6206142;23;20473;-58
2022/09/19 03:58:24;;;;;;;0.80;0.70;;;23.50;40.40;;;;;;6204319;23;20482;-62
2022/09/19 04:00:50;;;;;;;1.03;0.90;;;23.50;40.40;;;;;;6203646;23;20424;-58
2022/09/19 04:03:18;;;;;;;1.17;1.07;;;23.50;40.40;;;;;;6171357;23;20579;-58
2022/09/19 04:05:44;;;;;;;0.80;0.63;;;23.50;40.30;;;;;;6172516;23;20750;-62
2022/09/19 04:08:11;;;;;;;1.13;0.80;;;23.50;40.40;;;;;;6172602;23;20937;-58
2022/09/19 04:10:37;;;;;;;0.87;0.70;;;23.50;40.40;;;;;;6175425;23;21166;-60
2022/09/19 04:13:03;;;;;;;1.00;0.90;;;23.50;40.30;;;;;;6174093;23;21102;-61
2022/09/19 04:15:28;;;;;;;0.90;0.70;;;23.50;40.30;;;;;;6174191;23;20473;-59
2022/09/19 04:17:54;;;;;;;0.80;0.70;;;23.50;40.30;;;;;;6175214;23;20199;-60
2022/09/19 04:20:19;;;;;;;0.80;0.80;;;23.50;40.40;;;;;;6173979;23;20205;-58
2022/09/19 04:22:45;;;;;;;1.00;0.70;;;23.50;40.30;;;;;;6171049;23;20205;-63
2022/09/19 04:25:13;;;;;;;1.50;0.87;;;23.50;40.30;;;;;;6194117;23;20569;-61
2022/09/19 04:27:39;;;;;;;0.93;0.80;;;23.50;40.30;;;;;;6203432;23;20404;-64
2022/09/19 04:30:06;;;;;;;1.00;0.90;;;23.50;40.30;;;;;;6205323;23;20875;-61
2022/09/19 04:32:31;;;;;;;0.70;0.67;;;23.50;40.30;;;;;;6201481;23;20480;-65
2022/09/19 04:34:59;;;;;;;1.80;0.90;;;23.50;40.30;;;;;;6198875;23;20439;-61
2022/09/19 04:37:29;;;;;;;0.80;0.80;;;23.50;40.20;;;;;;6203384;23;20615;-62
2022/09/19 04:39:55;;;;;;;0.80;0.70;;;23.50;40.20;;;;;;6201358;23;20847;-65
2022/09/19 04:42:20;;;;;;;2.53;0.97;;;23.50;40.10;;;;;;6204196;23;20426;-64
2022/09/19 04:44:46;;;;;;;0.97;0.83;;;23.50;40.10;;;;;;6205199;23;20521;-61
2022/09/19 04:47:14;;;;;;;1.00;0.90;;;23.50;40.10;;;;;;6205460;23;20198;-59
2022/09/19 04:49:39;;;;;;;0.90;0.80;;;23.50;40.00;;;;;;6203295;23;20297;-58
2022/09/19 04:52:13;;;;;;;1.00;0.90;;;23.50;40.10;;;;;;6208776;23;20403;-59
2022/09/19 04:54:39;;;;;;;3.57;0.87;;;23.50;40.10;;;;;;6206259;23;20273;-58
2022/09/19 04:57:05;;;;;;;1.03;0.80;;;23.50;40.00;;;;;;6204830;23;20418;-63
2022/09/19 04:59:33;;;;;;;0.97;0.80;;;23.50;40.00;;;;;;6207466;23;20457;-59
2022/09/19 05:02:00;;;;;;;1.10;0.70;;;23.50;40.00;;;;;;6206907;23;20614;-58
2022/09/19 05:04:25;;;;;;;1.03;0.93;;;23.50;40.00;;;;;;6203844;23;20412;-60
2022/09/19 05:06:54;;;;;;;1.20;1.10;;;23.50;40.00;;;;;;6204695;23;20786;-62
2022/09/19 05:09:22;;;;;;;1.30;0.70;;;23.50;39.90;;;;;;6207179;23;20210;-58
2022/09/19 05:11:48;;;;;;;1.40;0.90;;;23.50;40.00;;;;;;6207441;23;20502;-60
2022/09/19 05:14:13;;;;;;;1.07;0.93;;;23.50;40.00;;;;;;6204005;23;20756;-62
2022/09/19 05:16:40;;;;;;;1.03;0.80;;;23.50;40.00;;;;;;6207721;23;20514;-60
2022/09/19 05:19:06;;;;;;;1.03;0.73;;;23.50;39.90;;;;;;6208805;23;20288;-61
2022/09/19 05:21:33;;;;;;;1.10;0.80;;;23.50;40.00;;;;;;6209824;23;20419;-60
2022/09/19 05:24:01;;;;;;;0.70;0.70;;;23.50;39.90;;;;;;6205302;23;20435;-57
2022/09/19 05:26:27;;;;;;;0.90;0.80;;;23.50;39.90;;;;;;6205121;23;20399;-58
2022/09/19 05:28:53;;;;;;;1.97;0.87;;;23.50;39.90;;;;;;6201235;23;20469;-59
2022/09/19 05:31:19;;;;;;;3.90;1.10;;;23.50;39.90;;;;;;6204599;23;20209;-59
2022/09/19 05:33:46;;;;;;;1.50;0.80;;;23.50;39.90;;;;;;6204728;23;20530;-60
2022/09/19 05:36:13;;;;;;;1.40;0.93;;;23.50;39.90;;;;;;6208430;23;20416;-59
2022/09/19 05:38:39;;;;;;;2.40;0.90;;;23.50;39.80;;;;;;6201554;23;20893;-59
2022/09/19 05:41:05;;;;;;;1.03;0.90;;;23.50;39.90;;;;;;6205446;23;20415;-61
2022/09/19 05:43:30;;;;;;;2.13;1.23;;;23.50;39.80;;;;;;6195120;23;20300;-60
2022/09/19 05:45:56;;;;;;;0.90;0.80;;;23.50;39.80;;;;;;6200821;23;20467;-59
2022/09/19 05:48:23;;;;;;;1.00;0.90;;;23.50;39.80;;;;;;6207864;23;20201;-59
2022/09/19 05:50:50;;;;;;;1.13;0.97;;;23.50;39.80;;;;;;6197586;23;20210;-64
2022/09/19 05:56:01;;;;;;;1.13;0.90;;;23.50;39.80;;;;;;6193159;23;20441;-60
2022/09/19 05:58:27;;;;;;;1.80;0.80;;;23.50;39.80;;;;;;6191709;23;20423;-61
2022/09/19 06:00:53;;;;;;;1.10;0.77;;;23.50;39.80;;;;;;6197666;23;20416;-58
2022/09/19 06:03:21;;;;;;;2.07;0.90;;;23.50;39.80;;;;;;6205096;23;20194;-59
2022/09/19 06:05:50;;;;;;;1.10;1.00;;;23.50;39.70;;;;;;6204597;23;20209;-59
2022/09/19 06:08:21;;;;;;;2.03;0.80;;;23.50;39.80;;;;;;6202470;23;20424;-58
2022/09/19 06:10:48;;;;;;;1.27;0.90;;;23.50;39.70;;;;;;6200267;23;20514;-58
2022/09/19 06:13:17;;;;;;;1.00;0.90;;;23.50;39.70;;;;;;6171592;23;20824;-61
2022/09/19 06:15:43;;;;;;;0.80;0.67;;;23.50;39.70;;;;;;6202697;23;20486;-61
2022/09/19 06:18:14;;;;;;;1.00;0.90;;;23.50;39.70;;;;;;6203347;23;20427;-62
2022/09/19 06:20:41;;;;;;;1.00;0.90;;;23.50;39.70;;;;;;6171306;23;20439;-63
2022/09/19 06:23:09;;;;;;;1.30;0.80;;;23.50;39.70;;;;;;6175428;23;20415;-62
2022/09/19 06:25:36;;;;;;;2.20;1.00;;;23.50;39.70;;;;;;6203219;23;20404;-60
2022/09/19 06:28:05;;;;;;;1.30;1.00;;;23.50;39.70;;;;;;6205014;23;20419;-59
2022/09/19 06:30:32;;;;;;;1.40;0.90;;;23.50;39.70;;;;;;6173416;23;20432;-58
2022/09/19 06:32:57;;;;;;;1.17;0.80;;;23.50;39.70;;;;;;6173345;23;20435;-58
2022/09/19 06:35:25;;;;;;;1.30;1.10;;;23.50;39.70;;;;;;6170812;23;20936;-63
2022/09/19 06:38:00;;;;;;;1.03;0.93;;;23.50;39.70;;;;;;6171222;23;20270;-62
2022/09/19 06:40:27;;;;;;;1.00;0.73;;;23.50;39.70;;;;;;6170794;23;20423;-62
2022/09/19 06:43:03;;;;;;;0.90;0.80;;;23.50;39.70;;;;;;6173670;23;20467;-59
2022/09/19 06:45:29;;;;;;;1.70;1.00;;;23.50;39.80;;;;;;6173823;23;20420;-58
2022/09/19 06:47:59;;;;;;;1.20;0.80;;;23.50;39.70;;;;;;6176541;23;20479;-58
2022/09/19 06:50:25;;;;;;;1.13;1.03;;;23.50;39.70;;;;;;6171517;23;20733;-59
2022/09/19 06:52:51;;;;;;;0.87;0.87;;;23.50;39.70;;;;;;6178085;23;20834;-59
2022/09/19 06:55:17;;;;;;;0.97;0.73;;;23.50;39.70;;;;;;6171058;23;20499;-60
2022/09/19 06:57:42;;;;;;;1.57;0.90;;;23.50;39.70;;;;;;6175167;23;20198;-60
2022/09/19 07:00:08;;;;;;;1.37;1.03;;;23.50;39.70;;;;;;6174824;23;20198;-61
2022/09/19 07:02:34;;;;;;;1.87;0.90;;;23.50;39.70;;;;;;6178581;23;20194;-63
2022/09/19 07:04:59;;;;;;;2.27;0.80;;;23.50;39.80;;;;;;6172579;23;20408;-58
2022/09/19 07:07:25;;;;;;;1.00;0.90;;;23.50;39.70;;;;;;6174741;23;20198;-58
2022/09/19 07:09:50;;;;;;;1.00;0.90;;;23.50;39.80;;;;;;6175681;23;20252;-58
2022/09/19 07:12:16;;;;;;;1.03;0.83;;;23.50;39.70;;;;;;6176940;23;20198;-60
2022/09/19 07:14:41;;;;;;;1.10;0.80;;;23.50;39.70;;;;;;6176440;23;20202;-61
2022/09/19 07:17:07;;;;;;;2.03;1.00;;;23.50;39.80;;;;;;6177977;23;20214;-61
2022/09/19 07:19:33;;;;;;;1.30;1.00;;;23.50;39.70;;;;;;6175888;23;20202;-59
2022/09/19 07:21:58;;;;;;;1.50;0.80;;;23.50;39.70;;;;;;6175730;23;21139;-58
2022/09/19 07:24:24;;;;;;;1.37;0.80;;;23.50;39.70;;;;;;6174789;23;20622;-59
2022/09/19 07:26:49;;;;;;;1.40;1.00;;;23.50;39.70;;;;;;6175461;23;20226;-62
2022/09/19 07:29:15;;;;;;;0.97;0.87;;;23.50;39.70;;;;;;6175760;23;20237;-58
2022/09/19 07:31:41;;;;;;;1.13;0.90;;;23.50;39.70;;;;;;6176520;23;20305;-58
2022/09/19 07:34:06;;;;;;;1.67;0.80;;;23.50;40.50;;;;;;6173563;23;20533;-60
2022/09/19 07:36:32;;;;;;;2.20;1.13;;;23.50;39.60;;;;;;6175006;23;20383;-59
2022/09/19 07:38:57;;;;;;;1.53;0.90;;;23.50;39.60;;;;;;6175695;23;20203;-59
2022/09/19 07:41:23;;;;;;;1.03;0.93;;;23.50;39.60;;;;;;6176700;23;20198;-61
2022/09/19 07:43:49;;;;;;;2.00;0.63;;;23.50;39.60;;;;;;6177115;23;20206;-58
2022/09/19 07:46:17;;;;;;;1.70;1.00;;;23.50;39.60;;;;;;6174884;23;20191;-59
2022/09/19 07:48:46;;;;;;;1.20;1.00;;;23.50;39.60;;;;;;6175882;23;20205;-62
2022/09/19 07:51:11;;;;;;;1.10;0.80;;;23.50;39.60;;;;;;6176625;23;20425;-61
2022/09/19 07:53:37;;;;;;;1.00;0.90;;;23.50;39.60;;;;;;6176040;23;20413;-58
2022/09/19 07:56:04;;;;;;;1.00;0.90;;;23.50;39.60;;;;;;6175504;23;20194;-58
2022/09/19 07:58:30;;;;;;;1.20;1.00;;;23.50;39.60;;;;;;6180942;23;20535;-58
2022/09/19 08:01:00;;;;;;;1.00;0.90;;;23.50;39.60;;;;;;6198060;23;20479;-58
2022/09/19 08:03:26;;;;;;;1.27;0.87;;;23.50;39.50;;;;;;6201273;23;20236;-58
2022/09/19 08:05:52;;;;;;;1.10;0.90;;;23.50;39.50;;;;;;6204749;23;20419;-58
2022/09/19 08:08:19;;;;;;;3.00;0.80;;;23.50;39.60;;;;;;6205241;23;20419;-58
2022/09/19 08:10:45;;;;;;;1.53;0.80;;;23.50;39.60;;;;;;6204658;23;20435;-58
2022/09/19 08:13:13;;;;;;;0.80;0.80;;;23.50;39.60;;;;;;6202872;23;20404;-62
2022/09/19 08:15:39;;;;;;;1.20;0.80;;;23.50;39.50;;;;;;6201896;23;20693;-59
2022/09/19 08:18:14;;;;;;;2.87;1.30;;;23.50;39.50;;;;;;6206415;23;20898;-59
2022/09/19 08:20:42;;;;;;;0.90;0.90;;;23.50;39.50;;;;;;6204802;23;20501;-59
2022/09/19 08:23:12;;;;;;;1.17;1.00;;;23.50;39.60;;;;;;6206721;23;20415;-60
2022/09/19 08:25:46;;;;;;;1.20;1.10;;;23.50;39.60;;;;;;6205067;23;20403;-61
2022/09/19 08:28:12;;;;;;;0.97;0.87;;;23.50;39.50;;;;;;6204916;23;20407;-60
2022/09/19 08:30:37;;;;;;;1.00;0.90;;;23.50;39.50;;;;;;6205836;23;20914;-59
2022/09/19 08:33:03;;;;;;;1.43;0.90;;;23.50;39.50;;;;;;6207880;23;20515;-59
2022/09/19 08:35:30;;;;;;;1.10;1.00;;;23.50;39.60;;;;;;6204720;23;20244;-63
2022/09/19 08:38:03;;;;;;;1.00;0.80;;;23.50;39.50;;;;;;6204225;23;20408;-57
2022/09/19 08:40:36;;;;;;;2.90;0.80;;;23.50;39.60;;;;;;6203844;23;20903;-59
2022/09/19 08:43:07;;;;;;;1.10;0.90;;;23.50;39.50;;;;;;6204998;23;20898;-59
2022/09/19 08:45:47;;;;;;;1.07;0.90;;;23.50;39.50;;;;;;6186845;23;20488;-60
2022/09/19 08:48:21;;;;;;;1.10;1.00;;;23.50;39.50;;;;;;6176514;23;20515;-59
2022/09/19 08:51:08;;;;;;;1.00;0.90;;;23.50;39.50;;;;;;6174373;23;20432;-58
2022/09/19 08:53:41;;;;;;;1.63;1.23;;;23.50;39.50;;;;;;6186895;23;20726;-58
2022/09/19 08:56:10;;;;;;;0.83;0.83;;;23.50;39.50;;;;;;6203611;23;20746;-60
2022/09/19 08:58:41;;;;;;;1.20;0.80;;;23.50;39.60;;;;;;6204411;23;20416;-63
2022/09/19 09:01:08;;;;;;;1.10;0.80;;;23.50;39.50;;;;;;6201377;23;20412;-59
2022/09/19 09:03:45;;;;;;;1.00;0.90;;;23.50;39.50;;;;;;6206736;23;20407;-58
2022/09/19 09:06:19;;;;;;;1.33;1.00;;;23.50;39.50;;;;;;6174548;23;20404;-59
2022/09/19 09:08:53;;;;;;;1.10;0.90;;;23.50;39.50;;;;;;6205802;23;20472;-58
2022/09/19 09:11:49;;;;;;;1.70;0.90;;;23.50;39.50;;;;;;6204967;23;20539;-61
2022/09/19 09:14:29;;;;;;;1.03;0.80;;;23.50;39.50;;;;;;6185102;23;20415;-58
2022/09/19 09:17:32;;;;;;;0.80;0.77;;;23.50;39.50;;;;;;6181326;23;20520;-59
2022/09/19 09:20:21;;;;;;;1.10;0.80;;;23.50;39.50;;;;;;6174772;23;20424;-58
2022/09/19 09:22:51;;;;;;;1.00;0.80;;;23.40;39.40;;;;;;6195852;23;20407;-58
2022/09/19 09:25:24;;;;;;;1.00;0.80;;;23.50;39.50;;;;;;6184963;23;20420;-64
2022/09/19 09:27:58;;;;;;;1.00;0.90;;;23.50;39.60;;;;;;6181313;23;20615;-63
2022/09/19 09:30:24;;;;;;;1.20;0.77;;;23.50;39.60;;;;;;6204460;23;20431;-59
2022/09/19 09:33:14;;;;;;;1.10;1.00;;;23.50;39.50;;;;;;6204374;23;20419;-61
2022/09/19 09:35:47;;;;;;;1.17;0.90;;;23.50;39.50;;;;;;6205371;22;20190;-59
2022/09/19 09:38:51;;;;;;;0.80;0.77;;;23.50;39.50;;;;;;6206726;23;20478;-59
2022/09/19 09:41:50;;;;;;;0.90;0.70;;;23.50;39.50;;;;;;6178557;23;20737;-60
2022/09/19 09:44:39;;;;;;;1.10;0.90;;;23.50;39.50;;;;;;6175090;23;20955;-60
2022/09/19 09:47:24;;;;;;;1.03;0.87;;;23.50;39.60;;;;;;6176067;23;20419;-60
2022/09/19 09:49:56;;;;;;;2.00;0.90;;;23.50;39.50;;;;;;6175001;23;20436;-62
2022/09/19 09:52:35;;;;;;;1.03;0.87;;;23.50;39.50;;;;;;6199082;23;20474;-59
2022/09/19 09:58:31;;;;;;;1.00;0.80;;;23.50;39.50;;;;;;6185444;23;20439;-58
2022/09/19 10:04:30;;;;;;;1.33;0.83;;;23.50;39.50;;;;;;6183351;23;20424;-58
2022/09/19 10:07:12;;;;;;;1.10;1.00;;;23.50;39.50;;;;;;6198819;23;20424;-62
2022/09/19 10:09:48;;;;;;;0.80;0.80;;;23.50;39.50;;;;;;6197604;23;20424;-60
2022/09/19 10:12:27;;;;;;;1.00;0.80;;;23.50;39.50;;;;;;6205583;23;20767;-58
2022/09/19 10:14:58;;;;;;;1.10;0.80;;;23.50;39.50;;;;;;6176765;23;20405;-59
2022/09/19 10:17:27;;;;;;;1.00;0.90;;;23.50;39.50;;;;;;6185838;23;20432;-63
2022/09/19 10:20:08;;;;;;;1.20;0.70;;;23.50;39.50;;;;;;6206245;23;20948;-58
2022/09/19 10:22:33;;;;;;;0.80;0.70;;;23.50;39.50;;;;;;6175818;23;20423;-61
2022/09/19 10:25:08;;;;;;;0.80;0.80;;;23.50;39.50;;;;;;6188702;23;20413;-63
2022/09/19 10:27:35;;;;;;;1.10;0.90;;;23.50;39.50;;;;;;6176244;23;20190;-58
2022/09/19 10:30:19;;;;;;;0.90;0.70;;;23.50;39.50;;;;;;6175571;23;20452;-58
2022/09/19 10:32:47;;;;;;;0.67;0.60;;;23.50;39.40;;;;;;6174979;23;20420;-60
2022/09/19 10:35:26;;;;;;;0.70;0.70;;;23.50;39.50;;;;;;6176679;23;20504;-58
2022/09/19 10:38:07;;;;;;;0.90;0.77;;;23.50;39.50;;;;;;6176921;23;20412;-58
2022/09/19 10:40:33;;;;;;;0.90;0.80;;;23.50;39.50;;;;;;6171714;23;20424;-58
2022/09/19 10:43:01;;;;;;;0.80;0.80;;;23.50;39.50;;;;;;6178152;23;20420;-58
2022/09/19 10:45:33;;;;;;;1.53;0.80;;;23.50;39.40;;;;;;6202925;23;20207;-59
2022/09/19 10:48:16;;;;;;;0.80;0.80;;;23.50;39.40;;;;;;6202730;23;21176;-65
2022/09/19 10:50:44;;;;;;;1.00;0.70;;;23.50;39.50;;;;;;6203866;23;20502;-62
2022/09/19 10:53:24;;;;;;;0.80;0.73;;;23.50;39.40;;;;;;6204800;23;20445;-60
2022/09/19 10:55:52;;;;;;;0.87;0.70;;;23.50;39.40;;;;;;6208208;23;20879;-61
2022/09/19 10:58:22;;;;;;;0.83;0.60;;;23.50;39.50;;;;;;6206260;23;20964;-60
2022/09/19 11:00:54;;;;;;;1.10;0.93;;;23.50;39.50;;;;;;6205405;23;20424;-58
2022/09/19 11:03:31;;;;;;;0.80;0.70;;;23.50;39.50;;;;;;6207214;23;21170;-64
2022/09/19 11:06:13;;;;;;;1.37;1.10;;;23.50;39.50;;;;;;6203819;23;20446;-59
2022/09/19 11:08:47;;;;;;;0.90;0.77;;;23.50;39.50;;;;;;6199545;23;20426;-59
2022/09/19 11:11:38;;;;;;;0.80;0.80;;;23.50;39.50;;;;;;6180485;23;20435;-58
2022/09/19 11:14:26;;;;;;;1.00;0.90;;;23.50;39.50;;;;;;6206965;23;20427;-58
2022/09/19 11:17:17;;;;;;;1.00;0.90;;;23.50;39.50;;;;;;6176235;23;20429;-58
2022/09/19 11:20:07;;;;;;;1.00;0.90;;;23.50;39.50;;;;;;6197558;23;20427;-59
2022/09/19 11:22:42;;;;;;;1.87;0.80;;;23.50;39.50;;;;;;6193775;23;20873;-64
2022/09/19 11:25:52;;;;;;;0.90;0.90;;;23.50;39.60;;;;;;6174151;23;20431;-63
2022/09/19 11:28:48;;;;;;;1.00;0.90;;;23.50;39.60;;;;;;6109694;23;20489;-60
2022/09/19 11:31:36;;;;;;;0.93;0.73;;;23.50;39.50;;;;;;6174987;23;20471;-59
2022/09/19 11:34:13;;;;;;;1.10;0.87;;;23.50;39.60;;;;;;6182689;23;20428;-60
2022/09/19 11:37:10;;;;;;;1.10;0.97;;;23.50;39.50;;;;;;6184015;23;20416;-58
2022/09/19 11:39:54;;;;;;;0.70;0.70;;;23.50;39.60;;;;;;6175789;23;20417;-62
2022/09/19 11:42:25;;;;;;;1.00;0.90;;;23.50;39.60;;;;;;6175034;23;20428;-61
2022/09/19 11:45:13;;;;;;;0.80;0.70;;;23.50;39.60;;;;;;6175558;23;20884;-64
2022/09/19 11:47:50;;;;;;;1.70;0.83;;;23.50;39.60;;;;;;6185387;23;20458;-59
2022/09/19 11:50:59;;;;;;;0.90;0.70;;;23.50;39.60;;;;;;6177091;23;20432;-58
2022/09/19 11:53:28;;;;;;;0.83;0.80;;;23.50;39.60;;;;;;6199598;23;20415;-58
2022/09/19 11:56:23;;;;;;;0.80;0.70;;;23.50;39.60;;;;;;6193547;23;20421;-63
2022/09/19 11:59:07;;;;;;;0.80;0.60;;;23.50;39.50;;;;;;6193421;23;20420;-58
2022/09/19 12:01:40;;;;;;;1.00;0.77;;;23.50;39.60;;;;;;6200626;23;20792;-59
2022/09/19 12:04:53;;;;;;;1.00;0.90;;;23.50;39.60;;;;;;6181150;22;20413;-60
2022/09/19 12:07:34;;;;;;;0.70;0.60;;;23.50;39.60;;;;;;6141645;23;20865;-59
2022/09/19 12:10:11;;;;;;;1.00;0.73;;;23.50;39.60;;;;;;6172855;23;20459;-59
2022/09/19 12:12:40;;;;;;;0.93;0.80;;;23.50;39.60;;;;;;6204574;23;20890;-61
2022/09/19 12:15:17;;;;;;;2.10;1.00;;;23.50;39.60;;;;;;6204847;23;20416;-60
2022/09/19 12:17:50;;;;;;;1.60;0.80;;;23.50;39.60;;;;;;6204517;23;20435;-62
2022/09/19 12:20:25;;;;;;;0.90;0.90;;;23.50;39.60;;;;;;6179743;23;20420;-58
2022/09/19 12:22:56;;;;;;;0.93;0.80;;;23.50;39.60;;;;;;6203384;23;20917;-59
2022/09/19 12:25:29;;;;;;;1.10;0.60;;;23.50;39.60;;;;;;6203917;23;20431;-60
2022/09/19 12:28:10;;;;;;;1.00;0.80;;;23.50;39.60;;;;;;6206148;23;20419;-63
2022/09/19 12:30:42;;;;;;;0.70;0.63;;;23.50;39.60;;;;;;6185756;23;20470;-64
2022/09/19 12:33:31;;;;;;;1.20;0.87;;;23.50;39.60;;;;;;6196401;23;20494;-59
2022/09/19 12:36:19;;;;;;;0.70;0.60;;;23.50;39.70;;;;;;6206493;23;20407;-58
2022/09/19 12:38:52;;;;;;;3.10;0.80;;;23.50;39.60;;;;;;6204194;23;20515;-60
2022/09/19 12:41:46;;;;;;;0.70;0.70;;;23.50;39.60;;;;;;6207382;23;20514;-60
2022/09/19 12:44:49;;;;;;;0.83;0.70;;;23.50;39.60;;;;;;6205868;23;20419;-59
2022/09/19 12:47:31;;;;;;;0.80;0.70;;;23.50;39.60;;;;;;6187160;23;20419;-62
2022/09/19 12:50:20;;;;;;;1.03;0.80;;;23.50;39.70;;;;;;6199357;23;20424;-61
2022/09/19 12:53:21;;;;;;;1.07;0.90;;;23.50;39.60;;;;;;6173889;23;20412;-61
2022/09/19 12:56:06;;;;;;;0.80;0.70;;;23.50;39.70;;;;;;6181390;23;20403;-60
2022/09/19 12:58:40;;;;;;;1.07;0.90;;;23.50;39.70;;;;;;6199723;23;20987;-63
2022/09/19 13:01:25;;;;;;;1.23;0.77;;;23.50;39.70;;;;;;6197889;23;20498;-61
2022/09/19 13:04:30;;;;;;;1.10;0.70;;;23.50;39.70;;;;;;6195993;23;20520;-61
2022/09/19 13:07:10;;;;;;;0.80;0.60;;;23.50;39.70;;;;;;6167095;23;21174;-60
2022/09/19 13:10:03;;;;;;;1.23;0.70;;;23.50;39.70;;;;;;6200553;23;20420;-63
2022/09/19 13:12:43;;;;;;;0.70;0.60;;;23.50;39.70;;;;;;6183857;23;20411;-60
2022/09/19 13:15:30;;;;;;;0.70;0.70;;;23.50;39.70;;;;;;6199590;23;20419;-60
2022/09/19 13:23:31;;;;;;;0.70;0.60;;;23.50;39.70;;;;;;6208154;23;20883;-60
2022/09/19 13:26:00;;;;;;;0.70;0.70;;;23.50;39.70;;;;;;6201820;23;20450;-60
2022/09/19 13:28:32;;;;;;;1.13;0.60;;;23.50;39.70;;;;;;6178919;23;20470;-65
2022/09/19 13:31:04;;;;;;;0.70;0.60;;;23.50;39.70;;;;;;6176789;23;20424;-59
2022/09/19 13:33:44;;;;;;;0.70;0.60;;;23.50;39.70;;;;;;6207491;23;20411;-59
2022/09/19 13:36:12;;;;;;;0.80;0.70;;;23.50;39.70;;;;;;6176498;23;20875;-63
2022/09/19 13:38:45;;;;;;;0.70;0.60;;;23.50;39.70;;;;;;6177403;23;20408;-63